sensor_id;sensor_type;location;lat;lon;timestamp;temperature;humidity
77305;DHT22;66364;52.622;7.746;2023-06-14T00:01:46;17.00;35.20
77305;DHT22;66364;52.622;7.746;2023-06-14T00:03:47;17.00;35.10
77305;DHT22;66364;52.622;7.746;2023-06-14T00:05:48;17.00;34.70
77305;DHT22;66364;52.622;7.746;2023-06-14T00:07:49;17.00;35.40
77305;DHT22;66364;52.622;7.746;2023-06-14T00:09:55;16.90;35.50
77305;DHT22;66364;52.622;7.746;2023-06-14T00:11:56;16.80;35.60
77305;DHT22;66364;52.622;7.746;2023-06-14T00:13:57;16.90;36.80
77305;DHT22;66364;52.622;7.746;2023-06-14T00:15:58;16.80;35.90
77305;DHT22;66364;52.622;7.746;2023-06-14T00:18:00;16.80;36.40
77305;DHT22;66364;52.622;7.746;2023-06-14T00:20:03;16.80;36.40
77305;DHT22;66364;52.622;7.746;2023-06-14T00:22:05;16.70;37.00
77305;DHT22;66364;52.622;7.746;2023-06-14T00:24:07;16.70;37.30
77305;DHT22;66364;52.622;7.746;2023-06-14T00:26:09;16.70;37.40
77305;DHT22;66364;52.622;7.746;2023-06-14T00:28:10;16.70;37.30
77305;DHT22;66364;52.622;7.746;2023-06-14T00:30:12;16.70;37.30
77305;DHT22;66364;52.622;7.746;2023-06-14T00:32:13;16.70;37.50
77305;DHT22;66364;52.622;7.746;2023-06-14T00:34:14;16.60;37.20
77305;DHT22;66364;52.622;7.746;2023-06-14T00:36:15;16.60;37.80
77305;DHT22;66364;52.622;7.746;2023-06-14T00:38:16;16.50;37.80
77305;DHT22;66364;52.622;7.746;2023-06-14T00:40:16;16.60;38.70
77305;DHT22;66364;52.622;7.746;2023-06-14T00:42:30;16.50;38.80
77305;DHT22;66364;52.622;7.746;2023-06-14T00:44:32;16.50;38.80
77305;DHT22;66364;52.622;7.746;2023-06-14T00:46:33;16.40;39.30
77305;DHT22;66364;52.622;7.746;2023-06-14T00:48:35;16.40;39.30
77305;DHT22;66364;52.622;7.746;2023-06-14T00:50:37;16.40;39.90
77305;DHT22;66364;52.622;7.746;2023-06-14T00:52:39;16.30;40.40
77305;DHT22;66364;52.622;7.746;2023-06-14T00:54:41;16.20;40.20
77305;DHT22;66364;52.622;7.746;2023-06-14T00:56:43;16.20;40.60
77305;DHT22;66364;52.622;7.746;2023-06-14T00:58:44;16.20;40.80
77305;DHT22;66364;52.622;7.746;2023-06-14T01:00:46;16.20;41.10
77305;DHT22;66364;52.622;7.746;2023-06-14T01:02:48;16.20;41.30
77305;DHT22;66364;52.622;7.746;2023-06-14T01:04:49;16.20;41.50
77305;DHT22;66364;52.622;7.746;2023-06-14T01:07:02;15.90;41.70
77305;DHT22;66364;52.622;7.746;2023-06-14T01:09:15;16.10;42.00
77305;DHT22;66364;52.622;7.746;2023-06-14T01:11:20;16.00;42.40
77305;DHT22;66364;52.622;7.746;2023-06-14T01:13:36;16.00;42.50
77305;DHT22;66364;52.622;7.746;2023-06-14T01:15:39;16.00;43.00
77305;DHT22;66364;52.622;7.746;2023-06-14T01:17:42;16.10;43.80
77305;DHT22;66364;52.622;7.746;2023-06-14T01:19:43;15.80;44.30
77305;DHT22;66364;52.622;7.746;2023-06-14T01:21:45;15.80;44.30
77305;DHT22;66364;52.622;7.746;2023-06-14T01:23:46;16.10;44.90
77305;DHT22;66364;52.622;7.746;2023-06-14T01:25:47;16.00;44.90
77305;DHT22;66364;52.622;7.746;2023-06-14T01:27:52;15.90;44.80
77305;DHT22;66364;52.622;7.746;2023-06-14T01:29:54;15.80;45.20
77305;DHT22;66364;52.622;7.746;2023-06-14T01:31:56;15.80;45.40
77305;DHT22;66364;52.622;7.746;2023-06-14T01:33:57;15.90;45.90
77305;DHT22;66364;52.622;7.746;2023-06-14T01:35:58;15.60;46.20
77305;DHT22;66364;52.622;7.746;2023-06-14T01:38:00;15.50;46.10
77305;DHT22;66364;52.622;7.746;2023-06-14T01:40:03;15.70;47.00
77305;DHT22;66364;52.622;7.746;2023-06-14T01:42:06;15.60;47.30
77305;DHT22;66364;52.622;7.746;2023-06-14T01:44:07;15.50;47.30
77305;DHT22;66364;52.622;7.746;2023-06-14T01:46:09;15.50;47.90
77305;DHT22;66364;52.622;7.746;2023-06-14T01:48:11;15.30;48.20
77305;DHT22;66364;52.622;7.746;2023-06-14T01:50:13;15.50;48.70
77305;DHT22;66364;52.622;7.746;2023-06-14T01:52:13;15.50;48.50
77305;DHT22;66364;52.622;7.746;2023-06-14T01:54:16;15.40;48.70
77305;DHT22;66364;52.622;7.746;2023-06-14T01:56:17;15.40;49.00
77305;DHT22;66364;52.622;7.746;2023-06-14T01:58:18;15.50;49.20
77305;DHT22;66364;52.622;7.746;2023-06-14T02:00:20;15.40;49.30
77305;DHT22;66364;52.622;7.746;2023-06-14T02:02:21;15.50;49.60
77305;DHT22;66364;52.622;7.746;2023-06-14T02:04:22;15.00;49.50
77305;DHT22;66364;52.622;7.746;2023-06-14T02:06:24;15.20;50.60
77305;DHT22;66364;52.622;7.746;2023-06-14T02:08:26;15.00;51.10
77305;DHT22;66364;52.622;7.746;2023-06-14T02:10:27;15.20;50.90
77305;DHT22;66364;52.622;7.746;2023-06-14T02:12:28;15.20;51.20
77305;DHT22;66364;52.622;7.746;2023-06-14T02:14:29;15.30;51.60
77305;DHT22;66364;52.622;7.746;2023-06-14T02:16:32;15.40;52.20
77305;DHT22;66364;52.622;7.746;2023-06-14T02:18:33;15.10;52.80
77305;DHT22;66364;52.622;7.746;2023-06-14T02:20:33;15.00;52.40
77305;DHT22;66364;52.622;7.746;2023-06-14T02:22:34;15.00;52.90
77305;DHT22;66364;52.622;7.746;2023-06-14T02:24:35;14.90;53.20
77305;DHT22;66364;52.622;7.746;2023-06-14T02:26:37;14.90;53.60
77305;DHT22;66364;52.622;7.746;2023-06-14T02:28:40;14.90;53.70
77305;DHT22;66364;52.622;7.746;2023-06-14T02:30:40;14.80;54.10
77305;DHT22;66364;52.622;7.746;2023-06-14T02:32:42;14.80;54.60
77305;DHT22;66364;52.622;7.746;2023-06-14T02:34:43;14.80;54.10
77305;DHT22;66364;52.622;7.746;2023-06-14T02:36:44;15.00;55.60
77305;DHT22;66364;52.622;7.746;2023-06-14T02:38:45;14.80;55.70
77305;DHT22;66364;52.622;7.746;2023-06-14T02:40:47;14.70;55.90
77305;DHT22;66364;52.622;7.746;2023-06-14T02:42:49;14.70;56.20
77305;DHT22;66364;52.622;7.746;2023-06-14T02:44:49;14.70;56.20
77305;DHT22;66364;52.622;7.746;2023-06-14T02:46:51;14.70;56.60
77305;DHT22;66364;52.622;7.746;2023-06-14T02:48:53;14.70;57.20
77305;DHT22;66364;52.622;7.746;2023-06-14T02:50:54;14.80;57.20
77305;DHT22;66364;52.622;7.746;2023-06-14T02:52:55;14.60;57.90
77305;DHT22;66364;52.622;7.746;2023-06-14T02:54:56;14.50;58.00
77305;DHT22;66364;52.622;7.746;2023-06-14T02:56:57;14.40;58.00
77305;DHT22;66364;52.622;7.746;2023-06-14T02:59:07;14.60;58.70
77305;DHT22;66364;52.622;7.746;2023-06-14T03:01:08;14.50;59.40
77305;DHT22;66364;52.622;7.746;2023-06-14T03:03:10;14.50;59.70
77305;DHT22;66364;52.622;7.746;2023-06-14T03:05:11;14.50;60.10
77305;DHT22;66364;52.622;7.746;2023-06-14T03:07:12;14.50;60.10
77305;DHT22;66364;52.622;7.746;2023-06-14T03:09:13;14.50;60.10
77305;DHT22;66364;52.622;7.746;2023-06-14T03:11:14;14.40;60.30
77305;DHT22;66364;52.622;7.746;2023-06-14T03:13:15;14.40;60.50
77305;DHT22;66364;52.622;7.746;2023-06-14T03:15:17;14.40;60.80
77305;DHT22;66364;52.622;7.746;2023-06-14T03:17:18;14.40;61.00
77305;DHT22;66364;52.622;7.746;2023-06-14T03:19:18;14.50;61.30
77305;DHT22;66364;52.622;7.746;2023-06-14T03:21:19;14.40;61.30
77305;DHT22;66364;52.622;7.746;2023-06-14T03:23:20;14.40;61.40
77305;DHT22;66364;52.622;7.746;2023-06-14T03:25:21;14.40;61.50
77305;DHT22;66364;52.622;7.746;2023-06-14T03:27:22;14.40;62.10
77305;DHT22;66364;52.622;7.746;2023-06-14T03:29:23;14.40;62.10
77305;DHT22;66364;52.622;7.746;2023-06-14T03:31:24;14.60;62.60
77305;DHT22;66364;52.622;7.746;2023-06-14T03:33:25;14.40;62.50
77305;DHT22;66364;52.622;7.746;2023-06-14T03:35:28;14.80;62.40
77305;DHT22;66364;52.622;7.746;2023-06-14T03:37:29;14.40;62.30
77305;DHT22;66364;52.622;7.746;2023-06-14T03:39:31;14.40;62.70
77305;DHT22;66364;52.622;7.746;2023-06-14T03:41:32;14.30;63.20
77305;DHT22;66364;52.622;7.746;2023-06-14T03:43:33;14.40;63.80
77305;DHT22;66364;52.622;7.746;2023-06-14T03:45:33;14.30;64.10
77305;DHT22;66364;52.622;7.746;2023-06-14T03:47:35;14.30;64.20
77305;DHT22;66364;52.622;7.746;2023-06-14T03:49:36;14.40;64.60
77305;DHT22;66364;52.622;7.746;2023-06-14T03:51:37;14.30;64.60
77305;DHT22;66364;52.622;7.746;2023-06-14T03:53:37;14.30;65.00
77305;DHT22;66364;52.622;7.746;2023-06-14T03:55:38;14.40;64.80
77305;DHT22;66364;52.622;7.746;2023-06-14T03:57:56;14.40;64.90
77305;DHT22;66364;52.622;7.746;2023-06-14T03:59:57;14.50;65.10
77305;DHT22;66364;52.622;7.746;2023-06-14T04:01:58;14.60;64.80
77305;DHT22;66364;52.622;7.746;2023-06-14T04:03:59;14.60;64.60
77305;DHT22;66364;52.622;7.746;2023-06-14T04:06:01;14.70;64.70
77305;DHT22;66364;52.622;7.746;2023-06-14T04:08:02;14.70;64.20
77305;DHT22;66364;52.622;7.746;2023-06-14T04:10:03;14.90;64.60
77305;DHT22;66364;52.622;7.746;2023-06-14T04:12:10;14.70;64.50
77305;DHT22;66364;52.622;7.746;2023-06-14T04:14:11;14.90;64.40
77305;DHT22;66364;52.622;7.746;2023-06-14T04:16:12;14.80;64.80
77305;DHT22;66364;52.622;7.746;2023-06-14T04:18:14;14.80;64.80
77305;DHT22;66364;52.622;7.746;2023-06-14T04:20:16;14.90;65.00
77305;DHT22;66364;52.622;7.746;2023-06-14T04:22:17;14.80;65.00
77305;DHT22;66364;52.622;7.746;2023-06-14T04:24:18;14.80;64.60
77305;DHT22;66364;52.622;7.746;2023-06-14T04:26:21;14.90;64.40
77305;DHT22;66364;52.622;7.746;2023-06-14T04:28:22;15.20;64.30
77305;DHT22;66364;52.622;7.746;2023-06-14T04:30:23;15.00;64.20
77305;DHT22;66364;52.622;7.746;2023-06-14T04:32:24;15.00;65.00
77305;DHT22;66364;52.622;7.746;2023-06-14T04:34:26;14.90;64.90
77305;DHT22;66364;52.622;7.746;2023-06-14T04:36:28;15.00;65.60
77305;DHT22;66364;52.622;7.746;2023-06-14T04:38:29;15.10;64.30
77305;DHT22;66364;52.622;7.746;2023-06-14T04:40:31;15.20;64.30
77305;DHT22;66364;52.622;7.746;2023-06-14T04:42:32;15.20;63.80
77305;DHT22;66364;52.622;7.746;2023-06-14T04:44:33;15.20;64.30
77305;DHT22;66364;52.622;7.746;2023-06-14T04:46:34;15.20;64.70
77305;DHT22;66364;52.622;7.746;2023-06-14T04:48:37;15.60;65.00
77305;DHT22;66364;52.622;7.746;2023-06-14T04:50:38;15.30;64.30
77305;DHT22;66364;52.622;7.746;2023-06-14T04:52:40;15.40;64.10
77305;DHT22;66364;52.622;7.746;2023-06-14T04:54:41;15.50;64.00
77305;DHT22;66364;52.622;7.746;2023-06-14T04:56:43;15.60;64.80
77305;DHT22;66364;52.622;7.746;2023-06-14T04:58:44;15.50;63.80
77305;DHT22;66364;52.622;7.746;2023-06-14T05:00:45;15.70;63.40
77305;DHT22;66364;52.622;7.746;2023-06-14T05:02:45;15.50;63.40
77305;DHT22;66364;52.622;7.746;2023-06-14T05:04:47;15.40;63.70
77305;DHT22;66364;52.622;7.746;2023-06-14T05:06:47;15.50;63.20
77305;DHT22;66364;52.622;7.746;2023-06-14T05:08:48;15.70;62.80
77305;DHT22;66364;52.622;7.746;2023-06-14T05:10:50;15.90;62.30
77305;DHT22;66364;52.622;7.746;2023-06-14T05:12:52;15.90;62.00
77305;DHT22;66364;52.622;7.746;2023-06-14T05:14:52;15.90;61.80
77305;DHT22;66364;52.622;7.746;2023-06-14T05:16:54;16.20;62.10
77305;DHT22;66364;52.622;7.746;2023-06-14T05:18:55;16.00;61.70
77305;DHT22;66364;52.622;7.746;2023-06-14T05:20:56;16.00;61.90
77305;DHT22;66364;52.622;7.746;2023-06-14T05:22:56;16.20;61.70
77305;DHT22;66364;52.622;7.746;2023-06-14T05:24:57;16.10;61.80
77305;DHT22;66364;52.622;7.746;2023-06-14T05:26:58;16.00;61.80
77305;DHT22;66364;52.622;7.746;2023-06-14T05:29:00;16.10;61.40
77305;DHT22;66364;52.622;7.746;2023-06-14T05:31:02;16.20;60.70
77305;DHT22;66364;52.622;7.746;2023-06-14T05:33:03;16.30;61.10
77305;DHT22;66364;52.622;7.746;2023-06-14T05:35:06;16.30;61.60
77305;DHT22;66364;52.622;7.746;2023-06-14T05:37:07;16.30;61.20
77305;DHT22;66364;52.622;7.746;2023-06-14T05:39:07;16.30;61.70
77305;DHT22;66364;52.622;7.746;2023-06-14T05:41:09;16.30;61.90
77305;DHT22;66364;52.622;7.746;2023-06-14T05:43:10;16.40;61.60
77305;DHT22;66364;52.622;7.746;2023-06-14T05:45:11;16.40;60.90
77305;DHT22;66364;52.622;7.746;2023-06-14T05:47:12;16.70;60.70
77305;DHT22;66364;52.622;7.746;2023-06-14T05:49:13;16.50;61.00
77305;DHT22;66364;52.622;7.746;2023-06-14T05:51:14;16.50;61.00
77305;DHT22;66364;52.622;7.746;2023-06-14T05:53:15;16.90;58.90
77305;DHT22;66364;52.622;7.746;2023-06-14T05:55:17;16.80;58.10
77305;DHT22;66364;52.622;7.746;2023-06-14T05:57:18;16.70;57.40
77305;DHT22;66364;52.622;7.746;2023-06-14T05:59:18;16.80;57.40
77305;DHT22;66364;52.622;7.746;2023-06-14T06:01:19;16.80;57.40
77305;DHT22;66364;52.622;7.746;2023-06-14T06:03:21;16.90;58.00
77305;DHT22;66364;52.622;7.746;2023-06-14T06:05:23;17.00;55.90
77305;DHT22;66364;52.622;7.746;2023-06-14T06:07:23;17.00;55.90
77305;DHT22;66364;52.622;7.746;2023-06-14T06:09:25;17.00;55.00
77305;DHT22;66364;52.622;7.746;2023-06-14T06:11:27;17.10;54.70
77305;DHT22;66364;52.622;7.746;2023-06-14T06:13:27;17.10;56.10
77305;DHT22;66364;52.622;7.746;2023-06-14T06:15:29;17.20;55.50
77305;DHT22;66364;52.622;7.746;2023-06-14T06:17:30;17.30;55.60
77305;DHT22;66364;52.622;7.746;2023-06-14T06:19:32;17.30;54.40
77305;DHT22;66364;52.622;7.746;2023-06-14T06:21:34;17.60;53.20
77305;DHT22;66364;52.622;7.746;2023-06-14T06:23:35;17.50;54.10
77305;DHT22;66364;52.622;7.746;2023-06-14T06:25:36;17.60;54.00
77305;DHT22;66364;52.622;7.746;2023-06-14T06:27:37;17.60;52.60
77305;DHT22;66364;52.622;7.746;2023-06-14T06:29:38;17.70;52.70
77305;DHT22;66364;52.622;7.746;2023-06-14T06:31:39;17.70;52.10
77305;DHT22;66364;52.622;7.746;2023-06-14T06:33:41;17.70;51.40
77305;DHT22;66364;52.622;7.746;2023-06-14T06:35:44;17.80;51.20
77305;DHT22;66364;52.622;7.746;2023-06-14T06:37:45;17.90;51.90
77305;DHT22;66364;52.622;7.746;2023-06-14T06:39:47;18.00;51.90
77305;DHT22;66364;52.622;7.746;2023-06-14T06:41:48;18.10;47.30
77305;DHT22;66364;52.622;7.746;2023-06-14T06:43:49;18.10;48.40
77305;DHT22;66364;52.622;7.746;2023-06-14T06:45:51;18.10;46.70
77305;DHT22;66364;52.622;7.746;2023-06-14T06:47:51;18.10;46.20
77305;DHT22;66364;52.622;7.746;2023-06-14T06:49:53;18.20;46.40
77305;DHT22;66364;52.622;7.746;2023-06-14T06:52:04;18.30;45.50
77305;DHT22;66364;52.622;7.746;2023-06-14T06:54:05;18.30;44.80
77305;DHT22;66364;52.622;7.746;2023-06-14T06:56:06;18.30;45.10
77305;DHT22;66364;52.622;7.746;2023-06-14T06:58:07;18.40;45.30
77305;DHT22;66364;52.622;7.746;2023-06-14T07:00:09;18.50;44.10
77305;DHT22;66364;52.622;7.746;2023-06-14T07:02:11;18.50;42.10
77305;DHT22;66364;52.622;7.746;2023-06-14T07:04:12;18.50;43.70
77305;DHT22;66364;52.622;7.746;2023-06-14T07:06:13;18.50;43.00
77305;DHT22;66364;52.622;7.746;2023-06-14T07:08:14;18.80;42.90
77305;DHT22;66364;52.622;7.746;2023-06-14T07:10:15;18.60;43.60
77305;DHT22;66364;52.622;7.746;2023-06-14T07:12:16;18.60;41.10
77305;DHT22;66364;52.622;7.746;2023-06-14T07:14:17;18.60;42.30
77305;DHT22;66364;52.622;7.746;2023-06-14T07:16:17;18.80;42.90
77305;DHT22;66364;52.622;7.746;2023-06-14T07:18:18;18.80;43.20
77305;DHT22;66364;52.622;7.746;2023-06-14T07:20:20;18.90;43.70
77305;DHT22;66364;52.622;7.746;2023-06-14T07:22:22;18.90;41.80
77305;DHT22;66364;52.622;7.746;2023-06-14T07:24:23;18.90;39.50
77305;DHT22;66364;52.622;7.746;2023-06-14T07:26:25;19.00;40.00
77305;DHT22;66364;52.622;7.746;2023-06-14T07:28:25;19.20;38.20
77305;DHT22;66364;52.622;7.746;2023-06-14T07:30:26;19.20;36.30
77305;DHT22;66364;52.622;7.746;2023-06-14T07:32:27;19.40;36.10
77305;DHT22;66364;52.622;7.746;2023-06-14T07:34:28;19.50;36.60
77305;DHT22;66364;52.622;7.746;2023-06-14T07:36:29;19.50;35.40
77305;DHT22;66364;52.622;7.746;2023-06-14T07:38:30;19.50;34.90
77305;DHT22;66364;52.622;7.746;2023-06-14T07:40:31;19.40;35.30
77305;DHT22;66364;52.622;7.746;2023-06-14T07:42:34;19.60;36.90
77305;DHT22;66364;52.622;7.746;2023-06-14T07:44:35;19.90;35.10
77305;DHT22;66364;52.622;7.746;2023-06-14T07:46:36;19.80;31.70
77305;DHT22;66364;52.622;7.746;2023-06-14T07:48:37;19.70;32.70
77305;DHT22;66364;52.622;7.746;2023-06-14T07:50:38;19.70;34.40
77305;DHT22;66364;52.622;7.746;2023-06-14T07:52:39;19.90;32.30
77305;DHT22;66364;52.622;7.746;2023-06-14T07:54:41;20.00;31.60
77305;DHT22;66364;52.622;7.746;2023-06-14T07:56:43;20.20;31.80
77305;DHT22;66364;52.622;7.746;2023-06-14T07:58:44;20.10;31.90
77305;DHT22;66364;52.622;7.746;2023-06-14T08:00:45;20.50;29.70
77305;DHT22;66364;52.622;7.746;2023-06-14T08:02:46;20.50;32.80
77305;DHT22;66364;52.622;7.746;2023-06-14T08:04:47;20.50;29.60
77305;DHT22;66364;52.622;7.746;2023-06-14T08:06:48;20.50;28.20
77305;DHT22;66364;52.622;7.746;2023-06-14T08:08:49;20.50;30.30
77305;DHT22;66364;52.622;7.746;2023-06-14T08:10:49;20.80;27.40
77305;DHT22;66364;52.622;7.746;2023-06-14T08:12:51;21.00;26.70
77305;DHT22;66364;52.622;7.746;2023-06-14T08:14:52;21.20;28.40
77305;DHT22;66364;52.622;7.746;2023-06-14T08:16:54;21.30;25.70
77305;DHT22;66364;52.622;7.746;2023-06-14T08:18:55;21.30;26.10
77305;DHT22;66364;52.622;7.746;2023-06-14T08:20:56;21.30;23.80
77305;DHT22;66364;52.622;7.746;2023-06-14T08:22:57;21.10;24.10
77305;DHT22;66364;52.622;7.746;2023-06-14T08:24:58;21.20;25.40
77305;DHT22;66364;52.622;7.746;2023-06-14T08:26:59;21.30;24.40
77305;DHT22;66364;52.622;7.746;2023-06-14T08:29:00;21.40;25.20
77305;DHT22;66364;52.622;7.746;2023-06-14T08:31:01;21.60;25.80
77305;DHT22;66364;52.622;7.746;2023-06-14T08:33:03;21.90;24.40
77305;DHT22;66364;52.622;7.746;2023-06-14T08:35:05;22.00;24.20
77305;DHT22;66364;52.622;7.746;2023-06-14T08:37:05;21.90;23.50
77305;DHT22;66364;52.622;7.746;2023-06-14T08:39:06;22.00;24.80
77305;DHT22;66364;52.622;7.746;2023-06-14T08:41:08;21.90;23.30
77305;DHT22;66364;52.622;7.746;2023-06-14T08:43:12;21.90;22.60
77305;DHT22;66364;52.622;7.746;2023-06-14T08:45:13;22.10;23.30
77305;DHT22;66364;52.622;7.746;2023-06-14T08:47:15;22.30;21.70
77305;DHT22;66364;52.622;7.746;2023-06-14T08:49:16;22.20;21.60
77305;DHT22;66364;52.622;7.746;2023-06-14T08:51:19;22.10;21.10
77305;DHT22;66364;52.622;7.746;2023-06-14T08:53:22;22.00;22.60
77305;DHT22;66364;52.622;7.746;2023-06-14T08:55:23;22.20;22.20
77305;DHT22;66364;52.622;7.746;2023-06-14T08:57:25;22.20;21.20
77305;DHT22;66364;52.622;7.746;2023-06-14T08:59:27;22.30;21.40
77305;DHT22;66364;52.622;7.746;2023-06-14T09:01:27;22.60;23.40
77305;DHT22;66364;52.622;7.746;2023-06-14T09:03:30;22.80;21.90
77305;DHT22;66364;52.622;7.746;2023-06-14T09:05:32;22.90;20.40
77305;DHT22;66364;52.622;7.746;2023-06-14T09:07:33;22.90;20.40
77305;DHT22;66364;52.622;7.746;2023-06-14T09:09:39;23.00;20.60
77305;DHT22;66364;52.622;7.746;2023-06-14T09:11:42;22.90;19.90
77305;DHT22;66364;52.622;7.746;2023-06-14T09:13:43;22.80;20.60
77305;DHT22;66364;52.622;7.746;2023-06-14T09:15:44;23.00;22.10
77305;DHT22;66364;52.622;7.746;2023-06-14T09:17:45;23.30;21.20
77305;DHT22;66364;52.622;7.746;2023-06-14T09:19:46;23.10;20.30
77305;DHT22;66364;52.622;7.746;2023-06-14T09:21:48;23.10;22.70
77305;DHT22;66364;52.622;7.746;2023-06-14T09:23:49;23.40;21.20
77305;DHT22;66364;52.622;7.746;2023-06-14T09:25:51;23.30;19.30
77305;DHT22;66364;52.622;7.746;2023-06-14T09:27:53;23.40;19.20
77305;DHT22;66364;52.622;7.746;2023-06-14T09:29:55;23.40;19.90
77305;DHT22;66364;52.622;7.746;2023-06-14T09:31:58;23.80;19.80
77305;DHT22;66364;52.622;7.746;2023-06-14T09:34:01;24.10;19.30
77305;DHT22;66364;52.622;7.746;2023-06-14T09:36:12;24.50;19.00
77305;DHT22;66364;52.622;7.746;2023-06-14T09:38:13;24.60;18.50
77305;DHT22;66364;52.622;7.746;2023-06-14T09:40:21;24.50;17.30
77305;DHT22;66364;52.622;7.746;2023-06-14T09:42:22;24.50;17.90
77305;DHT22;66364;52.622;7.746;2023-06-14T09:44:25;24.50;17.70
77305;DHT22;66364;52.622;7.746;2023-06-14T09:46:27;24.40;18.20
77305;DHT22;66364;52.622;7.746;2023-06-14T09:48:28;24.60;18.10
77305;DHT22;66364;52.622;7.746;2023-06-14T09:50:29;24.80;17.20
77305;DHT22;66364;52.622;7.746;2023-06-14T09:52:32;25.00;17.30
77305;DHT22;66364;52.622;7.746;2023-06-14T09:54:35;24.90;18.40
77305;DHT22;66364;52.622;7.746;2023-06-14T09:56:44;25.00;17.30
77305;DHT22;66364;52.622;7.746;2023-06-14T09:58:47;24.80;16.90
77305;DHT22;66364;52.622;7.746;2023-06-14T10:00:49;24.70;17.30
77305;DHT22;66364;52.622;7.746;2023-06-14T10:02:54;25.20;18.30
77305;DHT22;66364;52.622;7.746;2023-06-14T10:05:11;25.60;16.50
77305;DHT22;66364;52.622;7.746;2023-06-14T10:07:15;26.10;15.60
77305;DHT22;66364;52.622;7.746;2023-06-14T10:09:17;26.20;15.70
77305;DHT22;66364;52.622;7.746;2023-06-14T10:11:18;26.00;14.40
77305;DHT22;66364;52.622;7.746;2023-06-14T10:13:20;25.00;14.90
77305;DHT22;66364;52.622;7.746;2023-06-14T10:20:35;25.70;15.60
77305;DHT22;66364;52.622;7.746;2023-06-14T10:22:41;25.10;14.40
77305;DHT22;66364;52.622;7.746;2023-06-14T10:24:43;24.90;15.50
77305;DHT22;66364;52.622;7.746;2023-06-14T10:26:53;24.80;15.70
77305;DHT22;66364;52.622;7.746;2023-06-14T10:29:00;25.40;15.00
77305;DHT22;66364;52.622;7.746;2023-06-14T10:31:05;25.50;14.40
77305;DHT22;66364;52.622;7.746;2023-06-14T10:33:07;25.10;15.80
77305;DHT22;66364;52.622;7.746;2023-06-14T10:35:08;24.80;15.30
77305;DHT22;66364;52.622;7.746;2023-06-14T10:37:14;24.90;16.30
77305;DHT22;66364;52.622;7.746;2023-06-14T10:39:18;24.80;16.50
77305;DHT22;66364;52.622;7.746;2023-06-14T10:41:19;25.20;15.10
77305;DHT22;66364;52.622;7.746;2023-06-14T10:43:22;25.60;16.70
77305;DHT22;66364;52.622;7.746;2023-06-14T10:45:23;25.60;14.70
77305;DHT22;66364;52.622;7.746;2023-06-14T10:47:32;25.30;16.10
77305;DHT22;66364;52.622;7.746;2023-06-14T10:49:43;25.50;14.70
77305;DHT22;66364;52.622;7.746;2023-06-14T10:51:49;25.40;15.00
77305;DHT22;66364;52.622;7.746;2023-06-14T10:53:49;25.40;16.80
77305;DHT22;66364;52.622;7.746;2023-06-14T10:55:51;25.30;16.50
77305;DHT22;66364;52.622;7.746;2023-06-14T10:57:53;25.10;16.10
77305;DHT22;66364;52.622;7.746;2023-06-14T11:00:02;25.40;15.80
77305;DHT22;66364;52.622;7.746;2023-06-14T11:04:50;26.00;15.70
77305;DHT22;66364;52.622;7.746;2023-06-14T11:06:53;26.50;14.80
77305;DHT22;66364;52.622;7.746;2023-06-14T11:09:07;26.70;15.60
77305;DHT22;66364;52.622;7.746;2023-06-14T11:11:09;26.80;14.90
77305;DHT22;66364;52.622;7.746;2023-06-14T11:13:11;26.90;14.20
77305;DHT22;66364;52.622;7.746;2023-06-14T11:15:12;26.40;14.40
77305;DHT22;66364;52.622;7.746;2023-06-14T11:17:13;26.20;16.00
77305;DHT22;66364;52.622;7.746;2023-06-14T11:19:17;26.20;15.90
77305;DHT22;66364;52.622;7.746;2023-06-14T11:21:18;26.40;15.90
77305;DHT22;66364;52.622;7.746;2023-06-14T11:23:21;26.50;14.50
77305;DHT22;66364;52.622;7.746;2023-06-14T11:25:23;26.20;14.40
77305;DHT22;66364;52.622;7.746;2023-06-14T11:27:27;26.40;13.10
77305;DHT22;66364;52.622;7.746;2023-06-14T11:29:28;25.60;13.80
77305;DHT22;66364;52.622;7.746;2023-06-14T11:31:30;25.00;14.20
77305;DHT22;66364;52.622;7.746;2023-06-14T11:33:30;24.90;14.60
77305;DHT22;66364;52.622;7.746;2023-06-14T11:35:31;24.80;15.10
77305;DHT22;66364;52.622;7.746;2023-06-14T11:37:33;25.00;15.90
77305;DHT22;66364;52.622;7.746;2023-06-14T11:39:34;25.40;16.70
77305;DHT22;66364;52.622;7.746;2023-06-14T11:41:39;25.60;14.70
77305;DHT22;66364;52.622;7.746;2023-06-14T11:43:41;25.40;14.70
77305;DHT22;66364;52.622;7.746;2023-06-14T11:45:43;25.00;14.90
77305;DHT22;66364;52.622;7.746;2023-06-14T11:47:44;25.30;15.60
77305;DHT22;66364;52.622;7.746;2023-06-14T11:49:47;25.70;15.20
77305;DHT22;66364;52.622;7.746;2023-06-14T11:51:48;26.00;14.20
77305;DHT22;66364;52.622;7.746;2023-06-14T11:53:49;26.20;14.40
77305;DHT22;66364;52.622;7.746;2023-06-14T11:55:50;26.50;13.70
77305;DHT22;66364;52.622;7.746;2023-06-14T11:57:55;26.60;14.10
77305;DHT22;66364;52.622;7.746;2023-06-14T11:59:56;26.50;13.60
77305;DHT22;66364;52.622;7.746;2023-06-14T12:01:57;26.20;14.40
77305;DHT22;66364;52.622;7.746;2023-06-14T12:03:59;26.20;14.80
77305;DHT22;66364;52.622;7.746;2023-06-14T12:06:08;26.70;14.80
77305;DHT22;66364;52.622;7.746;2023-06-14T12:08:10;26.80;14.30
77305;DHT22;66364;52.622;7.746;2023-06-14T12:10:13;26.50;13.50
77305;DHT22;66364;52.622;7.746;2023-06-14T12:12:15;26.20;14.60
77305;DHT22;66364;52.622;7.746;2023-06-14T12:14:15;26.30;14.50
77305;DHT22;66364;52.622;7.746;2023-06-14T12:16:17;26.40;12.70
77305;DHT22;66364;52.622;7.746;2023-06-14T12:18:18;26.20;15.10
77305;DHT22;66364;52.622;7.746;2023-06-14T12:20:20;26.30;15.00
77305;DHT22;66364;52.622;7.746;2023-06-14T12:22:22;26.30;13.30
77305;DHT22;66364;52.622;7.746;2023-06-14T12:24:28;26.30;13.80
77305;DHT22;66364;52.622;7.746;2023-06-14T12:26:29;25.60;13.60
77305;DHT22;66364;52.622;7.746;2023-06-14T12:28:32;25.10;14.60
77305;DHT22;66364;52.622;7.746;2023-06-14T12:30:35;25.60;16.00
77305;DHT22;66364;52.622;7.746;2023-06-14T12:32:37;26.00;14.30
77305;DHT22;66364;52.622;7.746;2023-06-14T12:34:37;26.40;15.00
77305;DHT22;66364;52.622;7.746;2023-06-14T12:36:38;26.90;14.90
77305;DHT22;66364;52.622;7.746;2023-06-14T12:38:39;27.10;12.90
77305;DHT22;66364;52.622;7.746;2023-06-14T12:40:40;26.50;13.60
77305;DHT22;66364;52.622;7.746;2023-06-14T12:42:42;25.90;13.00
77305;DHT22;66364;52.622;7.746;2023-06-14T12:44:42;25.60;14.00
77305;DHT22;66364;52.622;7.746;2023-06-14T12:46:44;25.80;14.90
77305;DHT22;66364;52.622;7.746;2023-06-14T12:48:45;26.00;14.60
77305;DHT22;66364;52.622;7.746;2023-06-14T12:50:47;26.50;13.70
77305;DHT22;66364;52.622;7.746;2023-06-14T12:52:48;26.90;13.20
77305;DHT22;66364;52.622;7.746;2023-06-14T12:54:49;27.50;13.80
77305;DHT22;66364;52.622;7.746;2023-06-14T12:56:51;27.70;13.70
77305;DHT22;66364;52.622;7.746;2023-06-14T12:58:52;27.50;11.20